Brainerd Lakes Regional Airport Brainerd US
ICAO: KBRD
IATA: BRD
Category: Medium
Scheduled Services: Yes

Elevation: 1232 ft
TransAlt. 18000 ft.

Airport Communications:
ASOS:126.775
MINNEAPOLIS CNTR:118.05
PRINCETON RDO:123.65
CTAF/UNICOM:122.7

KBRD Zoom In..

If you have problems with the map follow the link
https://www.worldairports.se/pages/airport.php?
ICAO=KBRD

Runways:

(A) RW 05 length 6512 ft width 150 ft
---- / hdg 51

(B) RW 16 length 7100 ft width 150 ft
---- / hdg 160

(C) RW 23 length 6512 ft width 150 ft
ILS 109.90 / hdg 231

(D) RW 34 length 7100 ft width 150 ft
ILS 109.70 / hdg 340

Location; KBRD
Day. 23 / Time. 18.53 Zulu
* Altimeter: 30.39
* Temperature: 07° c. 44.6°f.
* Wind from: 040° Speed 05 kn.
Dewpoint: -04° c.
Visibility: 10 Statute Miles.
Clouds: Few 3900 ft.

KBRD 231853Z AUTO 04005KT 10SM FEW039 07/M04 A3039 RMK AO2 SLP304 T00721039


Wind From 040°
Speed 05 kn.

 
 
jpsmedia.com for Web Design worldairports.se 2018   terms of use